SVA257 OEJN-LTFM
Flight info
| Callsign | SVA257 |
|---|---|
| Flight time | 3h 16m |
| Altitude | 38000 |
| Route | BOMOX M686 GIBEL L300 OTEMO T55 GINDI W8 ALPID DCT GESON Q777 RASDA M855 TOMBI UA16 KFK UM855 SISPI |
| Aircraft | A333/H-SDE3GHIJ2J3J5M1RVWXY/LB2D1 |
Departure
| Time | 2026-05-06 13:17 |
|---|---|
| Airport | King Abdulaziz International Airport (OEJN) |
Arrival
| Time | 2026-05-06 16:34 |
|---|---|
| Airport | İstanbul Airport (LTFM) |
| Time | Latitude | Longitude | Altitude | Speed | Heading |
|---|---|---|---|---|---|
| 2026-05-06 12:49 | 21.66696 | 39.17227 | 33 ft | 0 kts | 234° |
| 2026-05-06 12:50 | 21.66680 | 39.17227 | 33 ft | 0 kts | 250° |
| 2026-05-06 13:03 | 21.66683 | 39.17234 | 34 ft | 3 kts | 250° |
| 2026-05-06 13:04 | 21.66691 | 39.17258 | 12 ft | 3 kts | 250° |
| 2026-05-06 13:04 | 21.66700 | 39.17282 | 33 ft | 3 kts | 250° |
| 2026-05-06 13:04 | 21.66707 | 39.17302 | 32 ft | 3 kts | 250° |
| 2026-05-06 13:04 | 21.66713 | 39.17324 | 32 ft | 4 kts | 292° |
| 2026-05-06 13:05 | 21.66701 | 39.17333 | 30 ft | 3 kts | 340° |
| 2026-05-06 13:05 | 21.66678 | 39.17342 | 33 ft | 3 kts | 340° |
| 2026-05-06 13:05 | 21.66663 | 39.17348 | 32 ft | 0 kts | 340° |
| 2026-05-06 13:08 | 21.66664 | 39.17347 | 34 ft | 1 kts | 340° |
| 2026-05-06 13:08 | 21.66686 | 39.17338 | 34 ft | 7 kts | 340° |
| 2026-05-06 13:08 | 21.66755 | 39.17312 | 34 ft | 14 kts | 340° |
| 2026-05-06 13:08 | 21.66860 | 39.17270 | 34 ft | 17 kts | 339° |
| 2026-05-06 13:09 | 21.66980 | 39.17257 | 34 ft | 19 kts | 12° |
| 2026-05-06 13:09 | 21.67108 | 39.17326 | 34 ft | 22 kts | 40° |
| 2026-05-06 13:09 | 21.67205 | 39.17450 | 34 ft | 19 kts | 53° |
| 2026-05-06 13:09 | 21.67278 | 39.17467 | 34 ft | 9 kts | 340° |
| 2026-05-06 13:10 | 21.67365 | 39.17430 | 34 ft | 17 kts | 339° |
| 2026-05-06 13:10 | 21.67477 | 39.17387 | 34 ft | 17 kts | 340° |
| 2026-05-06 13:10 | 21.67586 | 39.17343 | 34 ft | 17 kts | 340° |
| 2026-05-06 13:10 | 21.67707 | 39.17295 | 34 ft | 20 kts | 339° |
| 2026-05-06 13:11 | 21.67832 | 39.17237 | 34 ft | 18 kts | 316° |
| 2026-05-06 13:11 | 21.67827 | 39.17116 | 34 ft | 17 kts | 250° |
| 2026-05-06 13:11 | 21.67784 | 39.16992 | 34 ft | 20 kts | 248° |
| 2026-05-06 13:11 | 21.67722 | 39.16819 | 34 ft | 29 kts | 249° |
| 2026-05-06 13:12 | 21.67643 | 39.16591 | 34 ft | 34 kts | 249° |
| 2026-05-06 13:12 | 21.67564 | 39.16353 | 34 ft | 33 kts | 250° |
| 2026-05-06 13:12 | 21.67490 | 39.16179 | 34 ft | 22 kts | 219° |
| 2026-05-06 13:12 | 21.67356 | 39.16200 | 34 ft | 20 kts | 159° |
| 2026-05-06 13:13 | 21.67222 | 39.16254 | 35 ft | 21 kts | 160° |
| 2026-05-06 13:13 | 21.67084 | 39.16307 | 35 ft | 22 kts | 160° |
| 2026-05-06 13:13 | 21.66938 | 39.16361 | 35 ft | 23 kts | 161° |
| 2026-05-06 13:13 | 21.66779 | 39.16420 | 35 ft | 24 kts | 160° |
| 2026-05-06 13:14 | 21.66617 | 39.16487 | 35 ft | 25 kts | 159° |
| 2026-05-06 13:14 | 21.66450 | 39.16555 | 35 ft | 26 kts | 160° |
| 2026-05-06 13:14 | 21.66275 | 39.16623 | 34 ft | 27 kts | 159° |
| 2026-05-06 13:14 | 21.66182 | 39.16621 | 34 ft | 8 kts | 232° |
| 2026-05-06 13:15 | 21.66159 | 39.16564 | 34 ft | 9 kts | 249° |
| 2026-05-06 13:15 | 21.66144 | 39.16501 | 34 ft | 8 kts | 277° |
| 2026-05-06 13:15 | 21.66185 | 39.16463 | 34 ft | 8 kts | 340° |
| 2026-05-06 13:15 | 21.66196 | 39.16459 | 34 ft | 0 kts | 341° |
| 2026-05-06 13:16 | 21.66198 | 39.16458 | 34 ft | 1 kts | 341° |
| 2026-05-06 13:16 | 21.66239 | 39.16443 | 34 ft | 19 kts | 341° |
| 2026-05-06 13:16 | 21.66556 | 39.16319 | 40 ft | 77 kts | 339° |
| 2026-05-06 13:17 | 21.67227 | 39.16053 | 38 ft | 130 kts | 339° |
| 2026-05-06 13:17 | 21.68209 | 39.15677 | 239 ft | 163 kts | 338° |
| 2026-05-06 13:17 | 21.69321 | 39.15247 | 793 ft | 176 kts | 339° |
| 2026-05-06 13:17 | 21.70503 | 39.14775 | 1492 ft | 183 kts | 341° |
| 2026-05-06 13:18 | 21.71679 | 39.14301 | 2424 ft | 177 kts | 340° |
| 2026-05-06 13:18 | 21.72837 | 39.13832 | 3225 ft | 180 kts | 339° |
| 2026-05-06 13:18 | 21.74037 | 39.13353 | 3847 ft | 187 kts | 339° |
| 2026-05-06 13:18 | 21.75252 | 39.12842 | 4513 ft | 192 kts | 337° |
| 2026-05-06 13:19 | 21.76488 | 39.12279 | 5152 ft | 194 kts | 336° |
| 2026-05-06 13:19 | 21.77750 | 39.11719 | 5783 ft | 199 kts | 339° |
| 2026-05-06 13:19 | 21.79127 | 39.11191 | 6124 ft | 221 kts | 341° |
| 2026-05-06 13:19 | 21.80652 | 39.10639 | 6390 ft | 242 kts | 341° |
| 2026-05-06 13:20 | 21.82321 | 39.10032 | 6633 ft | 261 kts | 340° |
| 2026-05-06 13:20 | 21.84060 | 39.09383 | 6974 ft | 273 kts | 340° |
| 2026-05-06 13:20 | 21.85898 | 39.08678 | 7309 ft | 287 kts | 339° |
| 2026-05-06 13:20 | 21.87807 | 39.07932 | 7856 ft | 295 kts | 339° |
| 2026-05-06 13:21 | 21.89744 | 39.07149 | 8536 ft | 299 kts | 336° |
| 2026-05-06 13:21 | 21.91684 | 39.06285 | 9219 ft | 303 kts | 335° |
| 2026-05-06 13:21 | 21.93620 | 39.05372 | 9965 ft | 306 kts | 332° |
| 2026-05-06 13:21 | 21.95585 | 39.04419 | 10537 ft | 313 kts | 332° |
| 2026-05-06 13:22 | 21.97574 | 39.03450 | 11254 ft | 314 kts | 332° |
| 2026-05-06 13:22 | 21.99587 | 39.02471 | 11928 ft | 318 kts | 332° |
| 2026-05-06 13:22 | 22.01622 | 39.01488 | 12624 ft | 322 kts | 332° |
| 2026-05-06 13:22 | 22.03650 | 39.00513 | 13346 ft | 324 kts | 332° |
| 2026-05-06 13:23 | 22.05721 | 38.99520 | 14008 ft | 327 kts | 332° |
| 2026-05-06 13:23 | 22.07810 | 38.98522 | 14648 ft | 329 kts | 332° |
| 2026-05-06 13:23 | 22.09916 | 38.97516 | 15244 ft | 333 kts | 332° |
| 2026-05-06 13:23 | 22.12050 | 38.96495 | 15861 ft | 336 kts | 332° |
| 2026-05-06 13:24 | 22.14201 | 38.95466 | 16458 ft | 340 kts | 332° |
| 2026-05-06 13:24 | 22.16376 | 38.94426 | 17094 ft | 342 kts | 332° |
| 2026-05-06 13:24 | 22.18558 | 38.93381 | 17721 ft | 345 kts | 332° |
| 2026-05-06 13:24 | 22.20736 | 38.92338 | 18278 ft | 348 kts | 332° |
| 2026-05-06 13:25 | 22.22915 | 38.91193 | 18813 ft | 348 kts | 325° |
| 2026-05-06 13:25 | 22.24916 | 38.89750 | 19365 ft | 345 kts | 316° |
| 2026-05-06 13:25 | 22.26644 | 38.87978 | 19918 ft | 340 kts | 305° |
| 2026-05-06 13:25 | 22.28055 | 38.85947 | 20468 ft | 338 kts | 298° |
| 2026-05-06 13:26 | 22.29320 | 38.83806 | 21028 ft | 338 kts | 295° |
| 2026-05-06 13:26 | 22.30507 | 38.81606 | 21562 ft | 339 kts | 294° |
| 2026-05-06 13:26 | 22.31661 | 38.79377 | 22108 ft | 340 kts | 294° |
| 2026-05-06 13:26 | 22.32812 | 38.77133 | 22641 ft | 342 kts | 294° |
| 2026-05-06 13:27 | 22.33961 | 38.74903 | 23179 ft | 344 kts | 294° |
| 2026-05-06 13:27 | 22.35135 | 38.72646 | 23637 ft | 346 kts | 294° |
| 2026-05-06 13:27 | 22.36327 | 38.70376 | 24088 ft | 348 kts | 294° |
| 2026-05-06 13:27 | 22.37578 | 38.68127 | 24535 ft | 352 kts | 299° |
| 2026-05-06 13:28 | 22.39154 | 38.66042 | 24836 ft | 364 kts | 306° |
| 2026-05-06 13:28 | 22.40943 | 38.64041 | 25015 ft | 376 kts | 309° |
| 2026-05-06 13:28 | 22.42866 | 38.62059 | 25197 ft | 387 kts | 310° |
| 2026-05-06 13:28 | 22.44884 | 38.60072 | 25373 ft | 397 kts | 311° |
| 2026-05-06 13:29 | 22.46965 | 38.58059 | 25539 ft | 406 kts | 312° |
| 2026-05-06 13:29 | 22.49066 | 38.56033 | 25701 ft | 414 kts | 312° |
| 2026-05-06 13:29 | 22.51226 | 38.53941 | 25914 ft | 420 kts | 311° |
| 2026-05-06 13:29 | 22.53412 | 38.51815 | 26241 ft | 423 kts | 311° |
| 2026-05-06 13:30 | 22.55604 | 38.49672 | 26620 ft | 425 kts | 311° |
| 2026-05-06 13:30 | 22.57801 | 38.47517 | 27007 ft | 426 kts | 311° |
| 2026-05-06 13:30 | 22.60002 | 38.45351 | 27383 ft | 428 kts | 311° |
| 2026-05-06 13:30 | 22.62210 | 38.43174 | 27775 ft | 429 kts | 310° |
| 2026-05-06 13:31 | 22.64419 | 38.40993 | 28142 ft | 431 kts | 310° |
| 2026-05-06 13:31 | 22.66639 | 38.38800 | 28501 ft | 432 kts | 310° |
| 2026-05-06 13:31 | 22.68869 | 38.36597 | 28891 ft | 434 kts | 310° |
| 2026-05-06 13:31 | 22.71103 | 38.34389 | 29272 ft | 436 kts | 310° |
| 2026-05-06 13:32 | 22.73315 | 38.32201 | 29614 ft | 437 kts | 310° |
| 2026-05-06 13:32 | 22.75572 | 38.29969 | 29957 ft | 439 kts | 310° |
| 2026-05-06 13:32 | 22.77827 | 38.27737 | 30224 ft | 441 kts | 309° |
| 2026-05-06 13:32 | 22.80098 | 38.25487 | 30470 ft | 444 kts | 309° |
| 2026-05-06 13:33 | 22.82384 | 38.23222 | 30719 ft | 446 kts | 309° |
| 2026-05-06 13:33 | 22.84681 | 38.20945 | 30954 ft | 449 kts | 309° |
| 2026-05-06 13:33 | 22.86991 | 38.18655 | 31220 ft | 451 kts | 309° |
| 2026-05-06 13:33 | 22.89282 | 38.16382 | 31487 ft | 452 kts | 309° |
| 2026-05-06 13:34 | 22.91611 | 38.14072 | 31749 ft | 455 kts | 309° |
| 2026-05-06 13:34 | 22.93954 | 38.11746 | 32003 ft | 457 kts | 309° |
| 2026-05-06 13:34 | 22.96307 | 38.09409 | 32244 ft | 459 kts | 309° |
| 2026-05-06 13:34 | 22.98668 | 38.07063 | 32485 ft | 461 kts | 309° |
| 2026-05-06 13:35 | 23.01042 | 38.04702 | 32734 ft | 463 kts | 309° |
| 2026-05-06 13:35 | 23.03429 | 38.02328 | 32964 ft | 465 kts | 309° |
| 2026-05-06 13:35 | 23.05819 | 37.99949 | 33229 ft | 467 kts | 309° |
| 2026-05-06 13:35 | 23.08187 | 37.97593 | 33490 ft | 468 kts | 309° |
| 2026-05-06 13:36 | 23.10588 | 37.95201 | 33735 ft | 469 kts | 309° |
| 2026-05-06 13:36 | 23.12998 | 37.92799 | 33961 ft | 470 kts | 309° |
| 2026-05-06 13:36 | 23.15413 | 37.90392 | 34169 ft | 471 kts | 309° |
| 2026-05-06 13:36 | 23.17834 | 37.87976 | 34335 ft | 473 kts | 309° |
| 2026-05-06 13:37 | 23.20265 | 37.85549 | 34523 ft | 474 kts | 309° |
| 2026-05-06 13:37 | 23.22697 | 37.83120 | 34700 ft | 476 kts | 309° |
| 2026-05-06 13:37 | 23.25138 | 37.80681 | 34886 ft | 477 kts | 308° |
| 2026-05-06 13:37 | 23.27549 | 37.78271 | 35114 ft | 477 kts | 308° |
| 2026-05-06 13:38 | 23.29990 | 37.75831 | 35346 ft | 476 kts | 308° |
| 2026-05-06 13:38 | 23.32435 | 37.73387 | 35595 ft | 475 kts | 308° |
| 2026-05-06 13:38 | 23.34896 | 37.70962 | 35871 ft | 476 kts | 310° |
| 2026-05-06 13:38 | 23.37430 | 37.68629 | 36142 ft | 477 kts | 311° |
| 2026-05-06 13:39 | 23.39141 | 37.67113 | 36297 ft | 478 kts | 312° |
| 2026-05-06 13:39 | 23.42582 | 37.64124 | 36662 ft | 477 kts | 312° |
| 2026-05-06 13:39 | 23.45179 | 37.61881 | 36898 ft | 477 kts | 312° |
| 2026-05-06 13:39 | 23.47783 | 37.59624 | 37125 ft | 476 kts | 312° |
| 2026-05-06 13:40 | 23.50363 | 37.57374 | 37338 ft | 475 kts | 312° |
| 2026-05-06 13:40 | 23.52070 | 37.55879 | 37479 ft | 475 kts | 311° |
| 2026-05-06 13:40 | 23.54642 | 37.53618 | 37695 ft | 474 kts | 311° |
| 2026-05-06 13:40 | 23.57208 | 37.51356 | 37892 ft | 474 kts | 311° |
| 2026-05-06 13:41 | 23.59769 | 37.49095 | 37876 ft | 474 kts | 311° |
| 2026-05-06 13:41 | 23.64897 | 37.44563 | 37869 ft | 473 kts | 311° |
| 2026-05-06 13:42 | 23.70019 | 37.40032 | 37869 ft | 473 kts | 311° |
| 2026-05-06 13:42 | 23.75104 | 37.35531 | 37872 ft | 474 kts | 311° |
| 2026-05-06 13:43 | 23.80223 | 37.30997 | 37869 ft | 473 kts | 311° |
| 2026-05-06 13:43 | 23.85319 | 37.26480 | 37870 ft | 471 kts | 311° |
| 2026-05-06 13:44 | 23.90413 | 37.21958 | 37883 ft | 471 kts | 311° |
| 2026-05-06 13:44 | 23.95503 | 37.17434 | 37871 ft | 471 kts | 311° |
| 2026-05-06 13:45 | 24.00554 | 37.12939 | 37873 ft | 471 kts | 311° |
| 2026-05-06 13:45 | 24.08174 | 37.06151 | 37898 ft | 471 kts | 311° |
| 2026-05-06 13:46 | 24.13258 | 37.01618 | 37879 ft | 470 kts | 311° |
| 2026-05-06 13:46 | 24.18338 | 36.97082 | 37884 ft | 470 kts | 311° |
| 2026-05-06 13:47 | 24.23378 | 36.92578 | 37879 ft | 470 kts | 311° |
| 2026-05-06 13:47 | 24.28446 | 36.88043 | 37881 ft | 470 kts | 311° |
| 2026-05-06 13:48 | 24.33509 | 36.83508 | 37882 ft | 470 kts | 311° |
| 2026-05-06 13:48 | 24.38545 | 36.78992 | 37880 ft | 470 kts | 311° |
| 2026-05-06 13:49 | 24.43561 | 36.74411 | 37894 ft | 465 kts | 308° |
| 2026-05-06 13:49 | 24.47651 | 36.69110 | 37884 ft | 448 kts | 296° |
| 2026-05-06 13:50 | 24.50916 | 36.63378 | 37888 ft | 444 kts | 292° |
| 2026-05-06 13:50 | 24.53992 | 36.57499 | 37886 ft | 443 kts | 292° |
| 2026-05-06 13:51 | 24.57063 | 36.51603 | 37892 ft | 444 kts | 292° |
| 2026-05-06 13:51 | 24.60155 | 36.45728 | 37893 ft | 444 kts | 292° |
| 2026-05-06 13:52 | 24.63265 | 36.39851 | 37898 ft | 444 kts | 293° |
| 2026-05-06 13:52 | 24.66377 | 36.33973 | 37899 ft | 444 kts | 293° |
| 2026-05-06 13:53 | 24.69467 | 36.28127 | 37898 ft | 444 kts | 292° |
| 2026-05-06 13:53 | 24.72571 | 36.22243 | 37906 ft | 444 kts | 293° |
| 2026-05-06 13:54 | 24.75675 | 36.16351 | 37898 ft | 445 kts | 293° |
| 2026-05-06 13:54 | 24.78779 | 36.10453 | 37897 ft | 444 kts | 293° |
| 2026-05-06 13:55 | 24.81857 | 36.04598 | 37901 ft | 444 kts | 293° |
| 2026-05-06 13:55 | 24.84952 | 35.98701 | 37904 ft | 444 kts | 293° |
| 2026-05-06 13:56 | 24.88044 | 35.92803 | 37906 ft | 444 kts | 293° |
| 2026-05-06 13:56 | 24.91133 | 35.86905 | 37909 ft | 444 kts | 293° |
| 2026-05-06 13:57 | 24.94217 | 35.81008 | 37917 ft | 444 kts | 293° |
| 2026-05-06 13:57 | 24.97297 | 35.75110 | 37928 ft | 444 kts | 294° |
| 2026-05-06 13:58 | 25.00356 | 35.69248 | 37910 ft | 443 kts | 294° |
| 2026-05-06 13:58 | 25.03609 | 35.63451 | 37911 ft | 449 kts | 300° |
| 2026-05-06 13:59 | 25.08051 | 35.58475 | 37911 ft | 463 kts | 314° |
| 2026-05-06 13:59 | 25.13267 | 35.54219 | 37911 ft | 468 kts | 317° |
| 2026-05-06 14:00 | 25.18657 | 35.50155 | 37918 ft | 468 kts | 318° |
| 2026-05-06 14:00 | 25.23999 | 35.46122 | 37913 ft | 467 kts | 317° |
| 2026-05-06 14:01 | 25.29330 | 35.42037 | 37915 ft | 466 kts | 317° |
| 2026-05-06 14:01 | 25.34657 | 35.37923 | 37917 ft | 465 kts | 317° |
| 2026-05-06 14:02 | 25.39962 | 35.33817 | 37917 ft | 465 kts | 317° |
| 2026-05-06 14:02 | 25.45233 | 35.29734 | 37916 ft | 465 kts | 317° |
| 2026-05-06 14:03 | 25.50550 | 35.25613 | 37914 ft | 465 kts | 317° |
| 2026-05-06 14:03 | 25.55847 | 35.21504 | 37913 ft | 464 kts | 317° |
| 2026-05-06 14:04 | 25.61124 | 35.17407 | 37934 ft | 463 kts | 317° |
| 2026-05-06 14:04 | 25.66371 | 35.13327 | 37919 ft | 462 kts | 317° |
| 2026-05-06 14:05 | 25.71639 | 35.09225 | 37922 ft | 462 kts | 317° |
| 2026-05-06 14:05 | 25.76909 | 35.05118 | 37922 ft | 462 kts | 317° |
| 2026-05-06 14:06 | 25.82174 | 35.01011 | 37919 ft | 462 kts | 317° |
| 2026-05-06 14:06 | 25.87420 | 34.96915 | 37920 ft | 462 kts | 317° |
| 2026-05-06 14:07 | 25.92666 | 34.92815 | 37922 ft | 461 kts | 317° |
| 2026-05-06 14:07 | 25.97914 | 34.88706 | 37922 ft | 461 kts | 317° |
| 2026-05-06 14:08 | 26.03158 | 34.84597 | 37924 ft | 461 kts | 317° |
| 2026-05-06 14:08 | 26.08380 | 34.80500 | 37927 ft | 461 kts | 317° |
| 2026-05-06 14:09 | 26.13603 | 34.76398 | 37927 ft | 461 kts | 317° |
| 2026-05-06 14:09 | 26.18858 | 34.72267 | 37931 ft | 461 kts | 317° |
| 2026-05-06 14:10 | 26.24091 | 34.68149 | 37933 ft | 460 kts | 317° |
| 2026-05-06 14:10 | 26.29289 | 34.64053 | 37940 ft | 460 kts | 317° |
| 2026-05-06 14:11 | 26.34522 | 34.59925 | 37936 ft | 460 kts | 317° |
| 2026-05-06 14:11 | 26.39758 | 34.55789 | 37939 ft | 460 kts | 317° |
| 2026-05-06 14:12 | 26.44986 | 34.51655 | 37942 ft | 460 kts | 317° |
| 2026-05-06 14:12 | 26.50185 | 34.47540 | 37935 ft | 460 kts | 317° |
| 2026-05-06 14:13 | 26.55405 | 34.43403 | 37940 ft | 460 kts | 318° |
| 2026-05-06 14:13 | 26.60595 | 34.39287 | 37948 ft | 460 kts | 317° |
| 2026-05-06 14:14 | 26.65807 | 34.35148 | 37944 ft | 459 kts | 317° |
| 2026-05-06 14:14 | 26.71017 | 34.31005 | 37952 ft | 459 kts | 317° |
| 2026-05-06 14:15 | 26.76191 | 34.26886 | 37950 ft | 459 kts | 317° |
| 2026-05-06 14:15 | 26.81393 | 34.22740 | 37956 ft | 458 kts | 317° |
| 2026-05-06 14:16 | 26.86590 | 34.18594 | 37955 ft | 458 kts | 318° |
| 2026-05-06 14:16 | 26.91781 | 34.14448 | 37984 ft | 458 kts | 318° |
| 2026-05-06 14:17 | 26.96966 | 34.10301 | 37958 ft | 457 kts | 318° |
| 2026-05-06 14:17 | 27.02146 | 34.06154 | 37959 ft | 457 kts | 318° |
| 2026-05-06 14:18 | 27.07320 | 34.02006 | 37963 ft | 457 kts | 318° |
| 2026-05-06 14:18 | 27.12462 | 33.97879 | 37966 ft | 457 kts | 318° |
| 2026-05-06 14:19 | 27.17630 | 33.93727 | 37973 ft | 457 kts | 318° |
| 2026-05-06 14:19 | 27.22791 | 33.89577 | 37966 ft | 456 kts | 318° |
| 2026-05-06 14:20 | 27.27946 | 33.85425 | 37966 ft | 455 kts | 318° |
| 2026-05-06 14:20 | 27.33098 | 33.81271 | 37966 ft | 455 kts | 318° |
| 2026-05-06 14:21 | 27.38251 | 33.77112 | 37968 ft | 455 kts | 318° |
| 2026-05-06 14:21 | 27.43368 | 33.72976 | 37969 ft | 455 kts | 318° |
| 2026-05-06 14:22 | 27.48525 | 33.68804 | 37979 ft | 455 kts | 318° |
| 2026-05-06 14:22 | 27.53649 | 33.64654 | 37976 ft | 455 kts | 318° |
| 2026-05-06 14:23 | 27.58795 | 33.60481 | 37972 ft | 454 kts | 318° |
| 2026-05-06 14:23 | 27.63935 | 33.56308 | 37971 ft | 454 kts | 318° |
| 2026-05-06 14:24 | 27.69063 | 33.52138 | 37971 ft | 454 kts | 318° |
| 2026-05-06 14:24 | 27.74166 | 33.47986 | 37972 ft | 454 kts | 318° |
| 2026-05-06 14:25 | 27.79295 | 33.43807 | 37975 ft | 454 kts | 318° |
| 2026-05-06 14:25 | 27.84402 | 33.39640 | 37974 ft | 454 kts | 318° |
| 2026-05-06 14:26 | 27.89528 | 33.35453 | 37990 ft | 454 kts | 318° |
| 2026-05-06 14:26 | 27.94655 | 33.31261 | 37962 ft | 454 kts | 318° |
| 2026-05-06 14:27 | 27.98912 | 33.27776 | 37981 ft | 454 kts | 318° |
| 2026-05-06 14:27 | 28.04040 | 33.23573 | 37992 ft | 454 kts | 318° |
| 2026-05-06 14:28 | 28.09164 | 33.19370 | 37989 ft | 454 kts | 318° |
| 2026-05-06 14:28 | 28.14253 | 33.15189 | 37988 ft | 454 kts | 318° |
| 2026-05-06 14:29 | 28.19366 | 33.10984 | 38003 ft | 453 kts | 318° |
| 2026-05-06 14:29 | 28.24468 | 33.06784 | 37989 ft | 452 kts | 318° |
| 2026-05-06 14:30 | 28.29523 | 33.02616 | 37997 ft | 452 kts | 318° |
| 2026-05-06 14:30 | 28.34615 | 32.98412 | 37999 ft | 452 kts | 318° |
| 2026-05-06 14:31 | 28.39707 | 32.94203 | 38005 ft | 452 kts | 318° |
| 2026-05-06 14:31 | 28.44764 | 32.90018 | 38003 ft | 452 kts | 318° |
| 2026-05-06 14:32 | 28.49844 | 32.85810 | 37998 ft | 451 kts | 318° |
| 2026-05-06 14:32 | 28.54922 | 32.81598 | 38015 ft | 451 kts | 318° |
| 2026-05-06 14:33 | 28.59994 | 32.77386 | 38012 ft | 450 kts | 318° |
| 2026-05-06 14:33 | 28.65023 | 32.73204 | 38008 ft | 450 kts | 318° |
| 2026-05-06 14:34 | 28.70092 | 32.68984 | 38021 ft | 450 kts | 318° |
| 2026-05-06 14:34 | 28.75156 | 32.64763 | 38023 ft | 450 kts | 318° |
| 2026-05-06 14:35 | 28.80183 | 32.60567 | 38032 ft | 450 kts | 318° |
| 2026-05-06 14:35 | 28.85249 | 32.56334 | 38028 ft | 451 kts | 318° |
| 2026-05-06 14:36 | 28.90322 | 32.52092 | 38046 ft | 451 kts | 318° |
| 2026-05-06 14:36 | 28.95345 | 32.47881 | 38029 ft | 450 kts | 318° |
| 2026-05-06 14:37 | 29.00404 | 32.43637 | 38048 ft | 451 kts | 318° |
| 2026-05-06 14:37 | 29.05457 | 32.39395 | 38049 ft | 451 kts | 318° |
| 2026-05-06 14:38 | 29.10512 | 32.35146 | 38048 ft | 451 kts | 318° |
| 2026-05-06 14:38 | 29.15540 | 32.30914 | 38051 ft | 451 kts | 318° |
| 2026-05-06 14:39 | 29.20599 | 32.26651 | 38055 ft | 451 kts | 318° |
| 2026-05-06 14:39 | 29.25626 | 32.22410 | 38058 ft | 449 kts | 318° |
| 2026-05-06 14:40 | 29.30670 | 32.18145 | 38063 ft | 451 kts | 318° |
| 2026-05-06 14:40 | 29.35722 | 32.13871 | 38063 ft | 451 kts | 318° |
| 2026-05-06 14:41 | 29.40750 | 32.09612 | 38066 ft | 451 kts | 318° |
| 2026-05-06 14:41 | 29.45796 | 32.05332 | 38071 ft | 451 kts | 318° |
| 2026-05-06 14:42 | 29.50841 | 32.01050 | 38072 ft | 450 kts | 318° |
| 2026-05-06 14:42 | 29.55840 | 31.96800 | 38073 ft | 450 kts | 318° |
| 2026-05-06 14:43 | 29.60874 | 31.92513 | 38075 ft | 450 kts | 318° |
| 2026-05-06 14:43 | 29.65905 | 31.88223 | 38074 ft | 449 kts | 318° |
| 2026-05-06 14:44 | 29.70932 | 31.83932 | 38075 ft | 449 kts | 318° |
| 2026-05-06 14:45 | 29.78443 | 31.77511 | 38066 ft | 449 kts | 318° |
| 2026-05-06 14:45 | 29.83461 | 31.73214 | 38061 ft | 449 kts | 318° |
| 2026-05-06 14:46 | 29.88535 | 31.68991 | 38057 ft | 452 kts | 323° |
| 2026-05-06 14:46 | 29.94312 | 31.66024 | 38054 ft | 465 kts | 339° |
| 2026-05-06 14:47 | 30.00720 | 31.64543 | 38052 ft | 471 kts | 344° |
| 2026-05-06 14:47 | 30.07244 | 31.63400 | 38083 ft | 473 kts | 345° |
| 2026-05-06 14:48 | 30.13710 | 31.62305 | 38047 ft | 472 kts | 345° |
| 2026-05-06 14:48 | 30.20205 | 31.61167 | 38047 ft | 471 kts | 345° |
| 2026-05-06 14:49 | 30.26686 | 31.60006 | 38048 ft | 471 kts | 345° |
| 2026-05-06 14:49 | 30.33172 | 31.58834 | 38061 ft | 471 kts | 345° |
| 2026-05-06 14:50 | 30.39647 | 31.57665 | 38048 ft | 470 kts | 345° |
| 2026-05-06 14:50 | 30.46086 | 31.56502 | 38053 ft | 470 kts | 345° |
| 2026-05-06 14:51 | 30.52553 | 31.55332 | 38055 ft | 470 kts | 345° |
| 2026-05-06 14:51 | 30.59024 | 31.54161 | 38076 ft | 470 kts | 345° |
| 2026-05-06 14:52 | 30.65491 | 31.52989 | 38057 ft | 469 kts | 345° |
| 2026-05-06 14:52 | 30.71945 | 31.51817 | 38047 ft | 469 kts | 345° |
| 2026-05-06 14:53 | 30.78399 | 31.50643 | 38068 ft | 469 kts | 345° |
| 2026-05-06 14:53 | 30.84812 | 31.49472 | 38077 ft | 469 kts | 345° |
| 2026-05-06 14:54 | 30.91271 | 31.48292 | 38067 ft | 468 kts | 345° |
| 2026-05-06 14:54 | 30.97703 | 31.47115 | 38069 ft | 468 kts | 345° |
| 2026-05-06 14:55 | 31.04147 | 31.45934 | 38075 ft | 468 kts | 345° |
| 2026-05-06 14:55 | 31.10539 | 31.44761 | 38089 ft | 468 kts | 345° |
| 2026-05-06 14:56 | 31.16969 | 31.43581 | 38081 ft | 467 kts | 345° |
| 2026-05-06 14:56 | 31.23398 | 31.42398 | 38086 ft | 467 kts | 345° |
| 2026-05-06 14:57 | 31.29788 | 31.41218 | 38091 ft | 467 kts | 345° |
| 2026-05-06 14:57 | 31.36253 | 31.40020 | 38097 ft | 467 kts | 345° |
| 2026-05-06 14:58 | 31.42631 | 31.38836 | 38091 ft | 466 kts | 345° |
| 2026-05-06 14:58 | 31.49055 | 31.37642 | 38093 ft | 466 kts | 345° |
| 2026-05-06 14:59 | 31.55438 | 31.36469 | 38095 ft | 467 kts | 346° |
| 2026-05-06 14:59 | 31.61928 | 31.35651 | 38091 ft | 469 kts | 349° |
| 2026-05-06 15:00 | 31.68444 | 31.35038 | 38098 ft | 469 kts | 349° |
| 2026-05-06 15:00 | 31.74949 | 31.34417 | 38096 ft | 468 kts | 349° |
| 2026-05-06 15:01 | 31.81446 | 31.33760 | 38097 ft | 468 kts | 349° |
| 2026-05-06 15:01 | 31.87947 | 31.33083 | 38087 ft | 468 kts | 349° |
| 2026-05-06 15:02 | 31.94404 | 31.32399 | 38085 ft | 468 kts | 349° |
| 2026-05-06 15:02 | 32.00914 | 31.31707 | 38079 ft | 469 kts | 349° |
| 2026-05-06 15:03 | 32.07412 | 31.31017 | 38097 ft | 469 kts | 349° |
| 2026-05-06 15:03 | 32.13896 | 31.30326 | 38085 ft | 467 kts | 349° |
| 2026-05-06 15:04 | 32.20340 | 31.29636 | 38087 ft | 466 kts | 349° |
| 2026-05-06 15:04 | 32.26800 | 31.28940 | 38086 ft | 466 kts | 349° |
| 2026-05-06 15:05 | 32.33268 | 31.28242 | 38092 ft | 466 kts | 349° |
| 2026-05-06 15:05 | 32.39688 | 31.27550 | 38084 ft | 465 kts | 349° |
| 2026-05-06 15:06 | 32.46124 | 31.26854 | 38085 ft | 464 kts | 349° |
| 2026-05-06 15:06 | 32.52574 | 31.26156 | 38085 ft | 465 kts | 349° |
| 2026-05-06 15:07 | 32.58835 | 31.24674 | 38080 ft | 453 kts | 335° |
| 2026-05-06 15:07 | 32.64570 | 31.21732 | 38083 ft | 447 kts | 330° |
| 2026-05-06 15:08 | 32.70165 | 31.18481 | 38085 ft | 447 kts | 329° |
| 2026-05-06 15:08 | 32.75702 | 31.15193 | 38083 ft | 447 kts | 329° |
| 2026-05-06 15:09 | 32.81275 | 31.11902 | 38081 ft | 447 kts | 329° |
| 2026-05-06 15:09 | 32.86869 | 31.08617 | 38083 ft | 446 kts | 329° |
| 2026-05-06 15:10 | 32.92400 | 31.05372 | 38086 ft | 446 kts | 329° |
| 2026-05-06 15:10 | 32.97964 | 31.02102 | 38086 ft | 446 kts | 329° |
| 2026-05-06 15:11 | 33.03535 | 30.98822 | 38082 ft | 446 kts | 329° |
| 2026-05-06 15:11 | 33.09272 | 30.95926 | 38081 ft | 452 kts | 339° |
| 2026-05-06 15:12 | 33.15510 | 30.94785 | 38088 ft | 460 kts | 351° |
| 2026-05-06 15:12 | 33.21922 | 30.94449 | 38081 ft | 461 kts | 353° |
| 2026-05-06 15:13 | 33.28319 | 30.94263 | 38085 ft | 462 kts | 353° |
| 2026-05-06 15:13 | 33.34754 | 30.94064 | 38090 ft | 462 kts | 353° |
| 2026-05-06 15:14 | 33.40092 | 30.93875 | 38080 ft | 461 kts | 353° |
| 2026-05-06 15:14 | 33.46502 | 30.93634 | 38081 ft | 461 kts | 353° |
| 2026-05-06 15:15 | 33.52924 | 30.93389 | 38078 ft | 461 kts | 353° |
| 2026-05-06 15:15 | 33.59321 | 30.93146 | 38077 ft | 461 kts | 353° |
| 2026-05-06 15:16 | 33.65750 | 30.92902 | 38077 ft | 462 kts | 353° |
| 2026-05-06 15:16 | 33.72183 | 30.92658 | 38078 ft | 462 kts | 353° |
| 2026-05-06 15:17 | 33.78580 | 30.92416 | 38077 ft | 462 kts | 353° |
| 2026-05-06 15:17 | 33.85007 | 30.92171 | 38077 ft | 462 kts | 353° |
| 2026-05-06 15:18 | 33.91439 | 30.91926 | 38075 ft | 462 kts | 353° |
| 2026-05-06 15:18 | 33.97872 | 30.91656 | 38070 ft | 462 kts | 352° |
| 2026-05-06 15:19 | 34.04295 | 30.91304 | 38076 ft | 461 kts | 352° |
| 2026-05-06 15:19 | 34.10660 | 30.90937 | 38068 ft | 460 kts | 352° |
| 2026-05-06 15:20 | 34.17060 | 30.90574 | 38081 ft | 460 kts | 352° |
| 2026-05-06 15:20 | 34.23462 | 30.90216 | 38076 ft | 460 kts | 352° |
| 2026-05-06 15:21 | 34.29863 | 30.89887 | 38075 ft | 460 kts | 352° |
| 2026-05-06 15:21 | 34.36266 | 30.89578 | 38073 ft | 460 kts | 352° |
| 2026-05-06 15:22 | 34.42639 | 30.89270 | 38076 ft | 460 kts | 352° |
| 2026-05-06 15:22 | 34.49046 | 30.88957 | 38081 ft | 460 kts | 352° |
| 2026-05-06 15:23 | 34.55454 | 30.88642 | 38076 ft | 460 kts | 352° |
| 2026-05-06 15:23 | 34.61859 | 30.88330 | 38069 ft | 461 kts | 352° |
| 2026-05-06 15:24 | 34.68273 | 30.88093 | 38068 ft | 461 kts | 353° |
| 2026-05-06 15:24 | 34.74642 | 30.87895 | 38062 ft | 460 kts | 353° |
| 2026-05-06 15:25 | 34.81032 | 30.87695 | 38066 ft | 459 kts | 353° |
| 2026-05-06 15:25 | 34.87419 | 30.87486 | 38064 ft | 459 kts | 353° |
| 2026-05-06 15:26 | 34.93808 | 30.87274 | 38066 ft | 459 kts | 353° |
| 2026-05-06 15:26 | 35.00192 | 30.87062 | 38061 ft | 458 kts | 353° |
| 2026-05-06 15:27 | 35.06521 | 30.86851 | 38064 ft | 457 kts | 353° |
| 2026-05-06 15:27 | 35.12887 | 30.86639 | 38063 ft | 457 kts | 353° |
| 2026-05-06 15:28 | 35.19253 | 30.86426 | 38057 ft | 457 kts | 353° |
| 2026-05-06 15:28 | 35.25617 | 30.86214 | 38060 ft | 457 kts | 353° |
| 2026-05-06 15:29 | 35.31933 | 30.86002 | 38057 ft | 457 kts | 353° |
| 2026-05-06 15:29 | 35.38302 | 30.85788 | 38068 ft | 457 kts | 353° |
| 2026-05-06 15:30 | 35.44684 | 30.85573 | 38063 ft | 458 kts | 353° |
| 2026-05-06 15:30 | 35.51058 | 30.85359 | 38060 ft | 458 kts | 353° |
| 2026-05-06 15:31 | 35.57412 | 30.85146 | 38058 ft | 458 kts | 353° |
| 2026-05-06 15:31 | 35.63800 | 30.84899 | 38056 ft | 460 kts | 352° |
| 2026-05-06 15:32 | 35.73365 | 30.84324 | 38058 ft | 460 kts | 352° |
| 2026-05-06 15:32 | 35.79754 | 30.83921 | 38058 ft | 460 kts | 352° |
| 2026-05-06 15:33 | 35.86159 | 30.83529 | 38055 ft | 459 kts | 352° |
| 2026-05-06 15:33 | 35.92538 | 30.83143 | 38056 ft | 459 kts | 352° |
| 2026-05-06 15:34 | 35.98936 | 30.82757 | 38054 ft | 459 kts | 352° |
| 2026-05-06 15:34 | 36.05325 | 30.82389 | 38055 ft | 459 kts | 353° |
| 2026-05-06 15:35 | 36.11710 | 30.82154 | 38055 ft | 459 kts | 354° |
| 2026-05-06 15:35 | 36.18057 | 30.81964 | 38049 ft | 459 kts | 354° |
| 2026-05-06 15:36 | 36.24451 | 30.81766 | 38090 ft | 459 kts | 354° |
| 2026-05-06 15:36 | 36.30810 | 30.81559 | 38047 ft | 455 kts | 354° |
| 2026-05-06 15:37 | 36.37135 | 30.81348 | 38055 ft | 454 kts | 353° |
| 2026-05-06 15:37 | 36.43452 | 30.81133 | 38063 ft | 454 kts | 353° |
| 2026-05-06 15:38 | 36.49774 | 30.80915 | 38048 ft | 454 kts | 353° |
| 2026-05-06 15:38 | 36.56100 | 30.80696 | 38047 ft | 454 kts | 353° |
| 2026-05-06 15:39 | 36.62387 | 30.80478 | 38062 ft | 454 kts | 353° |
| 2026-05-06 15:39 | 36.68711 | 30.80260 | 38063 ft | 454 kts | 354° |
| 2026-05-06 15:40 | 36.75033 | 30.80041 | 38068 ft | 454 kts | 354° |
| 2026-05-06 15:40 | 36.81360 | 30.79822 | 38073 ft | 454 kts | 354° |
| 2026-05-06 15:41 | 36.87681 | 30.79602 | 38079 ft | 454 kts | 354° |
| 2026-05-06 15:41 | 36.93953 | 30.79293 | 38075 ft | 453 kts | 352° |
| 2026-05-06 15:42 | 37.00220 | 30.78561 | 38074 ft | 451 kts | 349° |
| 2026-05-06 15:42 | 37.06473 | 30.77712 | 38070 ft | 451 kts | 349° |
| 2026-05-06 15:43 | 37.12698 | 30.76894 | 38069 ft | 452 kts | 350° |
| 2026-05-06 15:43 | 37.18959 | 30.76104 | 38067 ft | 452 kts | 350° |
| 2026-05-06 15:44 | 37.25221 | 30.75323 | 38064 ft | 451 kts | 350° |
| 2026-05-06 15:44 | 37.31481 | 30.74542 | 38080 ft | 452 kts | 350° |
| 2026-05-06 15:45 | 37.37722 | 30.73761 | 38076 ft | 453 kts | 351° |
| 2026-05-06 15:45 | 37.43996 | 30.72948 | 38080 ft | 452 kts | 350° |
| 2026-05-06 15:46 | 37.50249 | 30.72042 | 38079 ft | 452 kts | 349° |
| 2026-05-06 15:46 | 37.56391 | 30.71130 | 38086 ft | 452 kts | 350° |
| 2026-05-06 15:47 | 37.62675 | 30.70269 | 38092 ft | 454 kts | 351° |
| 2026-05-06 15:47 | 37.68946 | 30.69500 | 38092 ft | 455 kts | 351° |
| 2026-05-06 15:48 | 37.75258 | 30.68736 | 38103 ft | 455 kts | 351° |
| 2026-05-06 15:48 | 37.81550 | 30.67964 | 38100 ft | 453 kts | 351° |
| 2026-05-06 15:49 | 37.87829 | 30.67185 | 38100 ft | 453 kts | 351° |
| 2026-05-06 15:49 | 37.94096 | 30.66331 | 38101 ft | 453 kts | 350° |
| 2026-05-06 15:50 | 38.00330 | 30.65513 | 38100 ft | 453 kts | 353° |
| 2026-05-06 15:50 | 38.06631 | 30.65094 | 38105 ft | 454 kts | 354° |
| 2026-05-06 15:51 | 38.12957 | 30.64783 | 38099 ft | 454 kts | 354° |
| 2026-05-06 15:51 | 38.19288 | 30.64446 | 38102 ft | 454 kts | 354° |
| 2026-05-06 15:52 | 38.25615 | 30.64078 | 38100 ft | 456 kts | 354° |
| 2026-05-06 15:52 | 38.31913 | 30.63702 | 38093 ft | 455 kts | 354° |
| 2026-05-06 15:53 | 38.38242 | 30.63324 | 38090 ft | 455 kts | 354° |
| 2026-05-06 15:53 | 38.44576 | 30.62944 | 38091 ft | 455 kts | 354° |
| 2026-05-06 15:54 | 38.50917 | 30.62564 | 38089 ft | 455 kts | 354° |
| 2026-05-06 15:54 | 38.57250 | 30.62184 | 38085 ft | 455 kts | 354° |
| 2026-05-06 15:55 | 38.63538 | 30.61807 | 38090 ft | 455 kts | 354° |
| 2026-05-06 15:55 | 38.69849 | 30.61197 | 38083 ft | 452 kts | 347° |
| 2026-05-06 15:56 | 38.75804 | 30.58798 | 38082 ft | 447 kts | 334° |
| 2026-05-06 15:56 | 38.81415 | 30.55327 | 38079 ft | 447 kts | 332° |
| 2026-05-06 15:57 | 38.86912 | 30.51681 | 38079 ft | 446 kts | 331° |
| 2026-05-06 15:57 | 38.92426 | 30.48006 | 38071 ft | 446 kts | 331° |
| 2026-05-06 15:58 | 38.97953 | 30.44348 | 38074 ft | 446 kts | 331° |
| 2026-05-06 15:58 | 39.03482 | 30.40701 | 38084 ft | 446 kts | 331° |
| 2026-05-06 15:59 | 39.08978 | 30.37074 | 38072 ft | 446 kts | 332° |
| 2026-05-06 15:59 | 39.14499 | 30.33422 | 38069 ft | 445 kts | 332° |
| 2026-05-06 16:00 | 39.20004 | 30.29774 | 38076 ft | 445 kts | 332° |
| 2026-05-06 16:00 | 39.25498 | 30.26126 | 38068 ft | 441 kts | 331° |
| 2026-05-06 16:01 | 39.30917 | 30.22522 | 38069 ft | 436 kts | 332° |
| 2026-05-06 16:01 | 39.36278 | 30.18950 | 38069 ft | 436 kts | 332° |
| 2026-05-06 16:02 | 39.40796 | 30.15934 | 38063 ft | 436 kts | 331° |
| 2026-05-06 16:02 | 39.46205 | 30.12345 | 38063 ft | 436 kts | 333° |
| 2026-05-06 16:03 | 39.48932 | 30.10700 | 37855 ft | 437 kts | 334° |
| 2026-05-06 16:03 | 39.51721 | 30.09124 | 37265 ft | 437 kts | 335° |
| 2026-05-06 16:03 | 39.54533 | 30.07587 | 36513 ft | 440 kts | 336° |
| 2026-05-06 16:03 | 39.57365 | 30.06052 | 35831 ft | 441 kts | 336° |
| 2026-05-06 16:04 | 39.60194 | 30.04512 | 35198 ft | 440 kts | 336° |
| 2026-05-06 16:04 | 39.63026 | 30.02957 | 34516 ft | 441 kts | 336° |
| 2026-05-06 16:04 | 39.65846 | 30.01396 | 33849 ft | 440 kts | 336° |
| 2026-05-06 16:04 | 39.68658 | 29.99830 | 33065 ft | 440 kts | 336° |
| 2026-05-06 16:05 | 39.71483 | 29.98251 | 32186 ft | 442 kts | 336° |
| 2026-05-06 16:05 | 39.74291 | 29.96677 | 31316 ft | 445 kts | 336° |
| 2026-05-06 16:05 | 39.77149 | 29.95073 | 30435 ft | 448 kts | 336° |
| 2026-05-06 16:05 | 39.80007 | 29.93466 | 29640 ft | 447 kts | 336° |
| 2026-05-06 16:06 | 39.82840 | 29.91873 | 29126 ft | 439 kts | 336° |
| 2026-05-06 16:06 | 39.85616 | 29.90311 | 28614 ft | 431 kts | 336° |
| 2026-05-06 16:06 | 39.88357 | 29.88776 | 28193 ft | 427 kts | 337° |
| 2026-05-06 16:06 | 39.91192 | 29.87560 | 28065 ft | 431 kts | 346° |
| 2026-05-06 16:07 | 39.94174 | 29.87015 | 27721 ft | 434 kts | 354° |
| 2026-05-06 16:07 | 39.97165 | 29.86915 | 26907 ft | 436 kts | 358° |
| 2026-05-06 16:07 | 40.00187 | 29.86928 | 26323 ft | 432 kts | 358° |
| 2026-05-06 16:07 | 40.03172 | 29.86947 | 25744 ft | 426 kts | 358° |
| 2026-05-06 16:08 | 40.06130 | 29.86958 | 25175 ft | 422 kts | 358° |
| 2026-05-06 16:08 | 40.09060 | 29.86963 | 24582 ft | 419 kts | 358° |
| 2026-05-06 16:08 | 40.11965 | 29.86963 | 23992 ft | 416 kts | 358° |
| 2026-05-06 16:08 | 40.14855 | 29.86962 | 23371 ft | 413 kts | 358° |
| 2026-05-06 16:09 | 40.17681 | 29.86958 | 22717 ft | 410 kts | 358° |
| 2026-05-06 16:09 | 40.20523 | 29.86954 | 22066 ft | 406 kts | 358° |
| 2026-05-06 16:09 | 40.23336 | 29.86919 | 21452 ft | 402 kts | 355° |
| 2026-05-06 16:09 | 40.26093 | 29.86446 | 21116 ft | 398 kts | 346° |
| 2026-05-06 16:10 | 40.28725 | 29.85320 | 21055 ft | 398 kts | 337° |
| 2026-05-06 16:10 | 40.31259 | 29.83852 | 21049 ft | 398 kts | 335° |
| 2026-05-06 16:10 | 40.33766 | 29.82296 | 21045 ft | 399 kts | 334° |
| 2026-05-06 16:10 | 40.36266 | 29.80712 | 21049 ft | 398 kts | 334° |
| 2026-05-06 16:11 | 40.38752 | 29.79125 | 21055 ft | 397 kts | 334° |
| 2026-05-06 16:11 | 40.41233 | 29.77535 | 21049 ft | 397 kts | 334° |
| 2026-05-06 16:11 | 40.43715 | 29.75941 | 21049 ft | 397 kts | 334° |
| 2026-05-06 16:11 | 40.46162 | 29.74368 | 21050 ft | 397 kts | 334° |
| 2026-05-06 16:12 | 40.48641 | 29.72772 | 21053 ft | 397 kts | 334° |
| 2026-05-06 16:12 | 40.51128 | 29.71170 | 20966 ft | 400 kts | 334° |
| 2026-05-06 16:12 | 40.53633 | 29.69555 | 20803 ft | 400 kts | 334° |
| 2026-05-06 16:12 | 40.56126 | 29.67945 | 20302 ft | 397 kts | 334° |
| 2026-05-06 16:13 | 40.58614 | 29.66337 | 19431 ft | 399 kts | 334° |
| 2026-05-06 16:13 | 40.61124 | 29.64713 | 18589 ft | 402 kts | 334° |
| 2026-05-06 16:13 | 40.63597 | 29.63112 | 17889 ft | 398 kts | 334° |
| 2026-05-06 16:13 | 40.66078 | 29.61505 | 17145 ft | 395 kts | 334° |
| 2026-05-06 16:14 | 40.68528 | 29.59916 | 16420 ft | 391 kts | 334° |
| 2026-05-06 16:14 | 40.70964 | 29.58335 | 15725 ft | 388 kts | 334° |
| 2026-05-06 16:14 | 40.73379 | 29.56767 | 15026 ft | 384 kts | 334° |
| 2026-05-06 16:14 | 40.75761 | 29.55219 | 14339 ft | 381 kts | 334° |
| 2026-05-06 16:15 | 40.78130 | 29.53678 | 13663 ft | 377 kts | 334° |
| 2026-05-06 16:15 | 40.80454 | 29.52165 | 13101 ft | 368 kts | 334° |
| 2026-05-06 16:15 | 40.82746 | 29.50671 | 12324 ft | 366 kts | 334° |
| 2026-05-06 16:15 | 40.85006 | 29.49198 | 11656 ft | 363 kts | 334° |
| 2026-05-06 16:16 | 40.87258 | 29.47783 | 11223 ft | 353 kts | 338° |
| 2026-05-06 16:16 | 40.89584 | 29.46970 | 11088 ft | 344 kts | 352° |
| 2026-05-06 16:16 | 40.91970 | 29.46700 | 11076 ft | 345 kts | 356° |
| 2026-05-06 16:16 | 40.94378 | 29.46540 | 11071 ft | 345 kts | 356° |
| 2026-05-06 16:17 | 40.96687 | 29.46364 | 11069 ft | 326 kts | 353° |
| 2026-05-06 16:17 | 40.98848 | 29.45784 | 11079 ft | 311 kts | 344° |
| 2026-05-06 16:17 | 41.00912 | 29.44957 | 11072 ft | 309 kts | 342° |
| 2026-05-06 16:17 | 41.02970 | 29.44080 | 11079 ft | 310 kts | 342° |
| 2026-05-06 16:18 | 41.05018 | 29.43190 | 11082 ft | 310 kts | 340° |
| 2026-05-06 16:18 | 41.06985 | 29.41996 | 11072 ft | 312 kts | 331° |
| 2026-05-06 16:18 | 41.08840 | 29.40492 | 11071 ft | 312 kts | 328° |
| 2026-05-06 16:18 | 41.10644 | 29.38943 | 11082 ft | 313 kts | 328° |
| 2026-05-06 16:19 | 41.12466 | 29.37369 | 11073 ft | 313 kts | 327° |
| 2026-05-06 16:19 | 41.14198 | 29.35589 | 11072 ft | 314 kts | 317° |
| 2026-05-06 16:19 | 41.15556 | 29.33315 | 10884 ft | 317 kts | 301° |
| 2026-05-06 16:19 | 41.16313 | 29.30605 | 10603 ft | 319 kts | 284° |
| 2026-05-06 16:20 | 41.16406 | 29.27648 | 10361 ft | 323 kts | 266° |
| 2026-05-06 16:20 | 41.15793 | 29.24760 | 10015 ft | 329 kts | 248° |
| 2026-05-06 16:20 | 41.14497 | 29.22258 | 9570 ft | 332 kts | 229° |
| 2026-05-06 16:20 | 41.12706 | 29.20317 | 9234 ft | 333 kts | 218° |
| 2026-05-06 16:21 | 41.10814 | 29.18609 | 8916 ft | 332 kts | 217° |
| 2026-05-06 16:21 | 41.08901 | 29.16919 | 8593 ft | 329 kts | 217° |
| 2026-05-06 16:21 | 41.07005 | 29.15234 | 8287 ft | 327 kts | 217° |
| 2026-05-06 16:21 | 41.05120 | 29.13547 | 7976 ft | 325 kts | 217° |
| 2026-05-06 16:22 | 41.03252 | 29.11868 | 7654 ft | 323 kts | 217° |
| 2026-05-06 16:22 | 41.01393 | 29.10194 | 7354 ft | 321 kts | 217° |
| 2026-05-06 16:22 | 40.99563 | 29.08545 | 7155 ft | 311 kts | 217° |
| 2026-05-06 16:22 | 40.97809 | 29.06966 | 6995 ft | 298 kts | 218° |
| 2026-05-06 16:23 | 40.96151 | 29.05476 | 6750 ft | 279 kts | 218° |
| 2026-05-06 16:23 | 40.94607 | 29.04087 | 6418 ft | 266 kts | 218° |
| 2026-05-06 16:23 | 40.93195 | 29.02584 | 5988 ft | 257 kts | 232° |
| 2026-05-06 16:23 | 40.92294 | 29.00617 | 5727 ft | 246 kts | 256° |
| 2026-05-06 16:24 | 40.92099 | 28.98453 | 5577 ft | 232 kts | 279° |
| 2026-05-06 16:24 | 40.92487 | 28.96443 | 5453 ft | 221 kts | 292° |
| 2026-05-06 16:24 | 40.93039 | 28.94591 | 5349 ft | 212 kts | 295° |
| 2026-05-06 16:24 | 40.93605 | 28.92792 | 5066 ft | 212 kts | 295° |
| 2026-05-06 16:25 | 40.94162 | 28.91012 | 4834 ft | 207 kts | 295° |
| 2026-05-06 16:25 | 40.94708 | 28.89252 | 4562 ft | 206 kts | 294° |
| 2026-05-06 16:25 | 40.95252 | 28.87482 | 4398 ft | 208 kts | 294° |
| 2026-05-06 16:25 | 40.95788 | 28.85729 | 4251 ft | 208 kts | 294° |
| 2026-05-06 16:26 | 40.96329 | 28.83956 | 4072 ft | 208 kts | 293° |
| 2026-05-06 16:26 | 40.96871 | 28.82174 | 3903 ft | 208 kts | 293° |
| 2026-05-06 16:26 | 40.97412 | 28.80388 | 3719 ft | 209 kts | 292° |
| 2026-05-06 16:26 | 40.97956 | 28.78594 | 3549 ft | 210 kts | 292° |
| 2026-05-06 16:27 | 40.98495 | 28.76821 | 3381 ft | 210 kts | 292° |
| 2026-05-06 16:27 | 40.99038 | 28.75024 | 3189 ft | 210 kts | 292° |
| 2026-05-06 16:27 | 40.99610 | 28.73252 | 3023 ft | 207 kts | 301° |
| 2026-05-06 16:27 | 41.00695 | 28.72051 | 3003 ft | 206 kts | 333° |
| 2026-05-06 16:28 | 41.02051 | 28.71456 | 3001 ft | 206 kts | 348° |
| 2026-05-06 16:28 | 41.03477 | 28.71280 | 3004 ft | 205 kts | 357° |
| 2026-05-06 16:28 | 41.04847 | 28.71250 | 2986 ft | 191 kts | 359° |
| 2026-05-06 16:28 | 41.06155 | 28.71227 | 2993 ft | 187 kts | 358° |
| 2026-05-06 16:29 | 41.07438 | 28.71197 | 2985 ft | 186 kts | 358° |
| 2026-05-06 16:29 | 41.08731 | 28.71159 | 2994 ft | 186 kts | 358° |
| 2026-05-06 16:29 | 41.10024 | 28.71121 | 3000 ft | 186 kts | 357° |
| 2026-05-06 16:29 | 41.11316 | 28.71086 | 2992 ft | 186 kts | 358° |
| 2026-05-06 16:30 | 41.12607 | 28.71055 | 2993 ft | 186 kts | 358° |
| 2026-05-06 16:30 | 41.13465 | 28.71037 | 2927 ft | 185 kts | 358° |
| 2026-05-06 16:30 | 41.15157 | 28.71001 | 2594 ft | 176 kts | 358° |
| 2026-05-06 16:30 | 41.16357 | 28.70972 | 2354 ft | 168 kts | 359° |
| 2026-05-06 16:31 | 41.17502 | 28.70945 | 2129 ft | 166 kts | 359° |
| 2026-05-06 16:31 | 41.18652 | 28.70919 | 1905 ft | 165 kts | 359° |
| 2026-05-06 16:31 | 41.19762 | 28.70894 | 1701 ft | 153 kts | 360° |
| 2026-05-06 16:31 | 41.20795 | 28.70869 | 1483 ft | 146 kts | 0° |
| 2026-05-06 16:32 | 41.21810 | 28.70854 | 1342 ft | 145 kts | 1° |
| 2026-05-06 16:32 | 41.22823 | 28.70834 | 1183 ft | 146 kts | 360° |
| 2026-05-06 16:32 | 41.23829 | 28.70799 | 983 ft | 144 kts | 1° |
| 2026-05-06 16:32 | 41.24831 | 28.70760 | 756 ft | 143 kts | 2° |
| 2026-05-06 16:33 | 41.25808 | 28.70742 | 561 ft | 141 kts | 2° |
| 2026-05-06 16:33 | 41.26780 | 28.70724 | 362 ft | 138 kts | 4° |
| 2026-05-06 16:33 | 41.27665 | 28.70712 | 336 ft | 112 kts | 1° |
| 2026-05-06 16:34 | 41.28509 | 28.70720 | 336 ft | 34 kts | 15° |
| 2026-05-06 16:34 | 41.28627 | 28.70787 | 333 ft | 0 kts | 29° |
| 2026-05-06 16:35 | 41.28667 | 28.70818 | 334 ft | 16 kts | 29° |
| 2026-05-06 16:35 | 41.28803 | 28.70917 | 332 ft | 25 kts | 29° |
| 2026-05-06 16:35 | 41.28954 | 28.71029 | 332 ft | 25 kts | 29° |
| 2026-05-06 16:35 | 41.28996 | 28.71061 | 334 ft | 0 kts | 29° |
| 2026-05-06 16:36 | 41.29018 | 28.71082 | 333 ft | 6 kts | 40° |
| 2026-05-06 16:36 | 41.29044 | 28.71129 | 332 ft | 6 kts | 68° |
| 2026-05-06 16:36 | 41.29039 | 28.71155 | 334 ft | 3 kts | 129° |
| 2026-05-06 16:36 | 41.29017 | 28.71158 | 334 ft | 6 kts | 178° |
| 2026-05-06 16:37 | 41.28967 | 28.71160 | 334 ft | 8 kts | 178° |
| 2026-05-06 16:37 | 41.28902 | 28.71164 | 335 ft | 10 kts | 178° |
| 2026-05-06 16:37 | 41.28822 | 28.71165 | 334 ft | 12 kts | 179° |
| 2026-05-06 16:37 | 41.28730 | 28.71167 | 334 ft | 14 kts | 179° |
| 2026-05-06 16:38 | 41.28623 | 28.71168 | 333 ft | 16 kts | 179° |
| 2026-05-06 16:38 | 41.28502 | 28.71170 | 336 ft | 18 kts | 179° |
| 2026-05-06 16:38 | 41.28370 | 28.71172 | 334 ft | 20 kts | 180° |
| 2026-05-06 16:38 | 41.28226 | 28.71175 | 334 ft | 21 kts | 177° |
| 2026-05-06 16:39 | 41.28073 | 28.71179 | 332 ft | 23 kts | 179° |
| 2026-05-06 16:39 | 41.27910 | 28.71183 | 334 ft | 24 kts | 179° |
| 2026-05-06 16:39 | 41.27737 | 28.71188 | 334 ft | 26 kts | 178° |
| 2026-05-06 16:39 | 41.27557 | 28.71191 | 337 ft | 27 kts | 179° |
| 2026-05-06 16:40 | 41.27364 | 28.71197 | 336 ft | 28 kts | 179° |
| 2026-05-06 16:40 | 41.27168 | 28.71201 | 333 ft | 29 kts | 179° |
| 2026-05-06 16:40 | 41.26981 | 28.71205 | 335 ft | 27 kts | 179° |
| 2026-05-06 16:40 | 41.26846 | 28.71209 | 332 ft | 16 kts | 179° |
| 2026-05-06 16:41 | 41.26730 | 28.71219 | 332 ft | 17 kts | 158° |
| 2026-05-06 16:41 | 41.26696 | 28.71350 | 334 ft | 16 kts | 90° |
| 2026-05-06 16:41 | 41.26697 | 28.71511 | 334 ft | 18 kts | 89° |
| 2026-05-06 16:41 | 41.26700 | 28.71685 | 333 ft | 19 kts | 89° |
| 2026-05-06 16:42 | 41.26702 | 28.71869 | 334 ft | 21 kts | 89° |
| 2026-05-06 16:42 | 41.26705 | 28.72062 | 336 ft | 15 kts | 89° |
| 2026-05-06 16:42 | 41.26670 | 28.72169 | 335 ft | 13 kts | 157° |
| 2026-05-06 16:42 | 41.26606 | 28.72174 | 333 ft | 9 kts | 182° |
| 2026-05-06 16:43 | 41.26521 | 28.72175 | 333 ft | 14 kts | 179° |
| 2026-05-06 16:43 | 41.26417 | 28.72177 | 332 ft | 16 kts | 179° |
| 2026-05-06 16:43 | 41.26280 | 28.72180 | 335 ft | 22 kts | 179° |
| 2026-05-06 16:43 | 41.26214 | 28.72226 | 334 ft | 10 kts | 121° |
| 2026-05-06 16:44 | 41.26207 | 28.72347 | 334 ft | 16 kts | 89° |
| 2026-05-06 16:44 | 41.26208 | 28.72503 | 334 ft | 18 kts | 89° |
| 2026-05-06 16:44 | 41.26211 | 28.72670 | 335 ft | 19 kts | 89° |
| 2026-05-06 16:44 | 41.26214 | 28.72846 | 337 ft | 20 kts | 89° |
| 2026-05-06 16:45 | 41.26215 | 28.73023 | 335 ft | 14 kts | 89° |
| 2026-05-06 16:45 | 41.26217 | 28.73157 | 335 ft | 15 kts | 89° |
| 2026-05-06 16:45 | 41.26219 | 28.73300 | 335 ft | 10 kts | 88° |
| 2026-05-06 16:45 | 41.26221 | 28.73382 | 334 ft | 10 kts | 88° |
| 2026-05-06 16:46 | 41.26229 | 28.73477 | 334 ft | 11 kts | 66° |
| 2026-05-06 16:46 | 41.26276 | 28.73506 | 336 ft | 4 kts | 337° |
| 2026-05-06 16:46 | 41.26311 | 28.73485 | 333 ft | 7 kts | 336° |
| 2026-05-06 16:46 | 41.26325 | 28.73478 | 335 ft | 0 kts | 340° |
| 2026-05-06 16:47 | 41.26326 | 28.73478 | 333 ft | 1 kts | 340° |
| 2026-05-06 16:47 | 41.26351 | 28.73466 | 334 ft | 6 kts | 345° |
| 2026-05-06 16:47 | 41.26379 | 28.73480 | 333 ft | 4 kts | 39° |
| 2026-05-06 16:47 | 41.26391 | 28.73517 | 335 ft | 5 kts | 69° |
| 2026-05-06 16:48 | 41.26396 | 28.73534 | 333 ft | 0 kts | 70° |
| 2026-05-06 16:48 | 41.26400 | 28.73550 | 332 ft | 3 kts | 72° |
| 2026-05-06 16:48 | 41.26405 | 28.73574 | 334 ft | 3 kts | 73° |
| 2026-05-06 16:48 | 41.26406 | 28.73579 | 333 ft | 0 kts | 73° |